sensor_id;sensor_type;location;lat;lon;timestamp;P1;durP1;ratioP1;P2;durP2;ratioP2
13388;SDS011;6764;53.250;10.410;2023-12-20T00:00:24;8.03;;;2.73;;
13388;SDS011;6764;53.250;10.410;2023-12-20T00:02:49;11.37;;;4.57;;
13388;SDS011;6764;53.250;10.410;2023-12-20T00:05:15;9.63;;;2.70;;
13388;SDS011;6764;53.250;10.410;2023-12-20T00:07:41;5.77;;;2.60;;
13388;SDS011;6764;53.250;10.410;2023-12-20T00:10:06;6.23;;;2.87;;
13388;SDS011;6764;53.250;10.410;2023-12-20T00:12:32;9.90;;;2.83;;
13388;SDS011;6764;53.250;10.410;2023-12-20T00:14:58;8.83;;;3.20;;
13388;SDS011;6764;53.250;10.410;2023-12-20T00:17:23;8.73;;;2.30;;
13388;SDS011;6764;53.250;10.410;2023-12-20T00:19:49;11.17;;;2.80;;
13388;SDS011;6764;53.250;10.410;2023-12-20T00:22:15;8.50;;;3.20;;
13388;SDS011;6764;53.250;10.410;2023-12-20T00:24:40;11.37;;;2.80;;
13388;SDS011;6764;53.250;10.410;2023-12-20T00:27:06;13.37;;;3.80;;
13388;SDS011;6764;53.250;10.410;2023-12-20T00:29:31;11.70;;;2.77;;
13388;SDS011;6764;53.250;10.410;2023-12-20T00:31:57;7.90;;;2.73;;
13388;SDS011;6764;53.250;10.410;2023-12-20T00:34:22;9.90;;;2.83;;
13388;SDS011;6764;53.250;10.410;2023-12-20T00:36:48;14.13;;;3.40;;
13388;SDS011;6764;53.250;10.410;2023-12-20T00:39:14;13.87;;;3.60;;
13388;SDS011;6764;53.250;10.410;2023-12-20T00:41:39;9.23;;;3.47;;
13388;SDS011;6764;53.250;10.410;2023-12-20T00:44:05;10.87;;;2.60;;
13388;SDS011;6764;53.250;10.410;2023-12-20T00:46:30;10.00;;;3.03;;
13388;SDS011;6764;53.250;10.410;2023-12-20T00:48:56;8.70;;;3.13;;
13388;SDS011;6764;53.250;10.410;2023-12-20T00:51:22;9.27;;;2.50;;
13388;SDS011;6764;53.250;10.410;2023-12-20T00:53:49;8.63;;;3.30;;
13388;SDS011;6764;53.250;10.410;2023-12-20T00:56:15;12.60;;;3.17;;
13388;SDS011;6764;53.250;10.410;2023-12-20T00:58:41;13.43;;;2.57;;
13388;SDS011;6764;53.250;10.410;2023-12-20T01:01:06;9.70;;;3.07;;
13388;SDS011;6764;53.250;10.410;2023-12-20T01:03:32;9.40;;;2.70;;
13388;SDS011;6764;53.250;10.410;2023-12-20T01:05:58;11.03;;;2.80;;
13388;SDS011;6764;53.250;10.410;2023-12-20T01:08:23;8.43;;;2.20;;
13388;SDS011;6764;53.250;10.410;2023-12-20T01:10:49;9.33;;;2.00;;
13388;SDS011;6764;53.250;10.410;2023-12-20T01:13:14;14.67;;;2.73;;
13388;SDS011;6764;53.250;10.410;2023-12-20T01:15:40;12.83;;;2.63;;
13388;SDS011;6764;53.250;10.410;2023-12-20T01:18:06;9.07;;;2.57;;
13388;SDS011;6764;53.250;10.410;2023-12-20T01:20:32;12.13;;;2.30;;
13388;SDS011;6764;53.250;10.410;2023-12-20T01:22:57;10.27;;;2.30;;
13388;SDS011;6764;53.250;10.410;2023-12-20T01:25:23;11.27;;;2.63;;
13388;SDS011;6764;53.250;10.410;2023-12-20T01:27:48;11.10;;;2.90;;
13388;SDS011;6764;53.250;10.410;2023-12-20T01:30:14;10.93;;;2.67;;
13388;SDS011;6764;53.250;10.410;2023-12-20T01:32:40;9.90;;;2.73;;
13388;SDS011;6764;53.250;10.410;2023-12-20T01:35:06;14.40;;;3.03;;
13388;SDS011;6764;53.250;10.410;2023-12-20T01:37:31;8.33;;;2.67;;
13388;SDS011;6764;53.250;10.410;2023-12-20T01:39:57;11.80;;;3.10;;
13388;SDS011;6764;53.250;10.410;2023-12-20T01:42:23;12.37;;;2.70;;
13388;SDS011;6764;53.250;10.410;2023-12-20T01:44:49;8.83;;;3.10;;
13388;SDS011;6764;53.250;10.410;2023-12-20T01:47:15;9.73;;;2.60;;
13388;SDS011;6764;53.250;10.410;2023-12-20T01:49:41;11.40;;;2.90;;
13388;SDS011;6764;53.250;10.410;2023-12-20T01:52:07;11.20;;;2.90;;
13388;SDS011;6764;53.250;10.410;2023-12-20T01:54:34;6.30;;;2.97;;
13388;SDS011;6764;53.250;10.410;2023-12-20T01:57:01;11.30;;;2.60;;
13388;SDS011;6764;53.250;10.410;2023-12-20T01:59:28;13.40;;;3.10;;
13388;SDS011;6764;53.250;10.410;2023-12-20T02:01:54;10.87;;;2.83;;
13388;SDS011;6764;53.250;10.410;2023-12-20T02:04:20;9.87;;;2.80;;
13388;SDS011;6764;53.250;10.410;2023-12-20T02:06:48;11.90;;;3.10;;
13388;SDS011;6764;53.250;10.410;2023-12-20T02:09:17;13.03;;;3.07;;
13388;SDS011;6764;53.250;10.410;2023-12-20T02:11:43;9.27;;;2.83;;
13388;SDS011;6764;53.250;10.410;2023-12-20T02:14:09;11.27;;;3.30;;
13388;SDS011;6764;53.250;10.410;2023-12-20T02:16:34;11.87;;;3.37;;
13388;SDS011;6764;53.250;10.410;2023-12-20T02:19:00;9.30;;;3.17;;
13388;SDS011;6764;53.250;10.410;2023-12-20T02:21:31;7.37;;;2.70;;
13388;SDS011;6764;53.250;10.410;2023-12-20T02:24:00;11.07;;;3.03;;
13388;SDS011;6764;53.250;10.410;2023-12-20T02:26:26;15.20;;;3.43;;
13388;SDS011;6764;53.250;10.410;2023-12-20T02:28:51;9.60;;;3.20;;
13388;SDS011;6764;53.250;10.410;2023-12-20T02:31:20;6.67;;;2.87;;
13388;SDS011;6764;53.250;10.410;2023-12-20T02:33:47;10.80;;;3.43;;
13388;SDS011;6764;53.250;10.410;2023-12-20T02:36:12;10.20;;;3.50;;
13388;SDS011;6764;53.250;10.410;2023-12-20T02:38:38;17.53;;;3.77;;
13388;SDS011;6764;53.250;10.410;2023-12-20T02:41:04;11.27;;;3.40;;
13388;SDS011;6764;53.250;10.410;2023-12-20T02:43:29;10.60;;;3.80;;
13388;SDS011;6764;53.250;10.410;2023-12-20T02:45:55;11.23;;;3.87;;
13388;SDS011;6764;53.250;10.410;2023-12-20T02:48:20;12.73;;;3.73;;
13388;SDS011;6764;53.250;10.410;2023-12-20T02:50:46;11.90;;;3.53;;
13388;SDS011;6764;53.250;10.410;2023-12-20T02:53:14;14.27;;;4.13;;
13388;SDS011;6764;53.250;10.410;2023-12-20T02:55:39;16.20;;;3.97;;
13388;SDS011;6764;53.250;10.410;2023-12-20T02:58:05;13.50;;;4.37;;
13388;SDS011;6764;53.250;10.410;2023-12-20T03:00:31;10.33;;;5.00;;
13388;SDS011;6764;53.250;10.410;2023-12-20T03:02:56;18.13;;;4.70;;
13388;SDS011;6764;53.250;10.410;2023-12-20T03:05:22;11.00;;;4.07;;
13388;SDS011;6764;53.250;10.410;2023-12-20T03:07:47;15.77;;;4.73;;
13388;SDS011;6764;53.250;10.410;2023-12-20T03:10:13;12.07;;;4.53;;
13388;SDS011;6764;53.250;10.410;2023-12-20T03:12:39;14.20;;;4.93;;
13388;SDS011;6764;53.250;10.410;2023-12-20T03:15:05;14.47;;;4.27;;
13388;SDS011;6764;53.250;10.410;2023-12-20T03:17:31;11.97;;;4.70;;
13388;SDS011;6764;53.250;10.410;2023-12-20T03:19:57;16.43;;;4.37;;
13388;SDS011;6764;53.250;10.410;2023-12-20T03:22:23;13.30;;;3.97;;
13388;SDS011;6764;53.250;10.410;2023-12-20T03:24:48;15.10;;;4.73;;
13388;SDS011;6764;53.250;10.410;2023-12-20T03:27:14;10.20;;;3.53;;
13388;SDS011;6764;53.250;10.410;2023-12-20T03:29:39;8.67;;;3.50;;
13388;SDS011;6764;53.250;10.410;2023-12-20T03:32:05;10.00;;;3.80;;
13388;SDS011;6764;53.250;10.410;2023-12-20T03:34:31;9.13;;;3.47;;
13388;SDS011;6764;53.250;10.410;2023-12-20T03:36:56;10.80;;;4.10;;
13388;SDS011;6764;53.250;10.410;2023-12-20T03:39:22;12.60;;;3.57;;
13388;SDS011;6764;53.250;10.410;2023-12-20T03:41:47;13.20;;;3.57;;
13388;SDS011;6764;53.250;10.410;2023-12-20T03:44:13;10.23;;;3.77;;
13388;SDS011;6764;53.250;10.410;2023-12-20T03:46:38;11.97;;;3.27;;
13388;SDS011;6764;53.250;10.410;2023-12-20T03:49:04;12.07;;;3.20;;
13388;SDS011;6764;53.250;10.410;2023-12-20T03:51:30;8.87;;;3.23;;
13388;SDS011;6764;53.250;10.410;2023-12-20T03:53:56;7.10;;;3.43;;
13388;SDS011;6764;53.250;10.410;2023-12-20T03:56:21;9.00;;;3.23;;
13388;SDS011;6764;53.250;10.410;2023-12-20T03:58:50;11.13;;;3.80;;
13388;SDS011;6764;53.250;10.410;2023-12-20T04:01:15;15.20;;;3.50;;
13388;SDS011;6764;53.250;10.410;2023-12-20T04:03:41;17.87;;;3.20;;
13388;SDS011;6764;53.250;10.410;2023-12-20T04:06:06;8.70;;;2.97;;
13388;SDS011;6764;53.250;10.410;2023-12-20T04:08:32;8.60;;;3.00;;
13388;SDS011;6764;53.250;10.410;2023-12-20T04:10:58;9.47;;;3.17;;
13388;SDS011;6764;53.250;10.410;2023-12-20T04:13:23;6.87;;;2.67;;
13388;SDS011;6764;53.250;10.410;2023-12-20T04:15:49;11.57;;;2.60;;
13388;SDS011;6764;53.250;10.410;2023-12-20T04:18:16;10.97;;;2.87;;
13388;SDS011;6764;53.250;10.410;2023-12-20T04:20:41;9.33;;;2.87;;
13388;SDS011;6764;53.250;10.410;2023-12-20T04:23:07;11.33;;;3.50;;
13388;SDS011;6764;53.250;10.410;2023-12-20T04:25:32;9.43;;;2.97;;
13388;SDS011;6764;53.250;10.410;2023-12-20T04:27:58;7.37;;;2.97;;
13388;SDS011;6764;53.250;10.410;2023-12-20T04:30:23;13.43;;;3.67;;
13388;SDS011;6764;53.250;10.410;2023-12-20T04:32:49;13.13;;;3.27;;
13388;SDS011;6764;53.250;10.410;2023-12-20T04:35:15;8.63;;;2.87;;
13388;SDS011;6764;53.250;10.410;2023-12-20T04:37:40;10.63;;;2.80;;
13388;SDS011;6764;53.250;10.410;2023-12-20T04:40:06;11.83;;;3.43;;
13388;SDS011;6764;53.250;10.410;2023-12-20T04:42:33;8.27;;;2.63;;
13388;SDS011;6764;53.250;10.410;2023-12-20T04:44:58;8.57;;;3.47;;
13388;SDS011;6764;53.250;10.410;2023-12-20T04:47:24;17.90;;;3.97;;
13388;SDS011;6764;53.250;10.410;2023-12-20T04:49:49;9.43;;;3.40;;
13388;SDS011;6764;53.250;10.410;2023-12-20T04:52:15;5.63;;;2.70;;
13388;SDS011;6764;53.250;10.410;2023-12-20T04:54:41;10.63;;;3.30;;
13388;SDS011;6764;53.250;10.410;2023-12-20T04:57:06;8.60;;;3.40;;
13388;SDS011;6764;53.250;10.410;2023-12-20T04:59:32;11.37;;;3.13;;
13388;SDS011;6764;53.250;10.410;2023-12-20T05:01:57;13.13;;;3.07;;
13388;SDS011;6764;53.250;10.410;2023-12-20T05:04:23;11.17;;;3.63;;
13388;SDS011;6764;53.250;10.410;2023-12-20T05:06:49;6.93;;;3.20;;
13388;SDS011;6764;53.250;10.410;2023-12-20T05:09:15;13.83;;;3.20;;
13388;SDS011;6764;53.250;10.410;2023-12-20T05:11:41;12.13;;;3.77;;
13388;SDS011;6764;53.250;10.410;2023-12-20T05:14:06;14.10;;;3.70;;
13388;SDS011;6764;53.250;10.410;2023-12-20T05:16:32;18.10;;;4.13;;
13388;SDS011;6764;53.250;10.410;2023-12-20T05:18:58;12.33;;;3.73;;
13388;SDS011;6764;53.250;10.410;2023-12-20T05:21:25;10.57;;;3.27;;
13388;SDS011;6764;53.250;10.410;2023-12-20T05:23:51;12.63;;;3.73;;
13388;SDS011;6764;53.250;10.410;2023-12-20T05:26:17;13.47;;;4.03;;
13388;SDS011;6764;53.250;10.410;2023-12-20T05:28:43;11.80;;;3.33;;
13388;SDS011;6764;53.250;10.410;2023-12-20T05:31:08;6.83;;;3.40;;
13388;SDS011;6764;53.250;10.410;2023-12-20T05:33:34;13.80;;;3.23;;
13388;SDS011;6764;53.250;10.410;2023-12-20T05:36:00;10.30;;;3.70;;
13388;SDS011;6764;53.250;10.410;2023-12-20T05:38:25;8.03;;;3.37;;
13388;SDS011;6764;53.250;10.410;2023-12-20T05:40:51;13.50;;;3.70;;
13388;SDS011;6764;53.250;10.410;2023-12-20T05:43:17;12.83;;;3.33;;
13388;SDS011;6764;53.250;10.410;2023-12-20T05:45:42;9.73;;;3.70;;
13388;SDS011;6764;53.250;10.410;2023-12-20T05:48:08;14.67;;;3.50;;
13388;SDS011;6764;53.250;10.410;2023-12-20T05:50:33;9.80;;;2.73;;
13388;SDS011;6764;53.250;10.410;2023-12-20T05:53:00;9.60;;;3.37;;
13388;SDS011;6764;53.250;10.410;2023-12-20T05:55:25;14.77;;;4.10;;
13388;SDS011;6764;53.250;10.410;2023-12-20T05:57:51;12.87;;;3.50;;
13388;SDS011;6764;53.250;10.410;2023-12-20T06:00:17;13.80;;;4.33;;
13388;SDS011;6764;53.250;10.410;2023-12-20T06:02:43;12.03;;;3.50;;
13388;SDS011;6764;53.250;10.410;2023-12-20T06:05:09;9.33;;;3.73;;
13388;SDS011;6764;53.250;10.410;2023-12-20T06:07:34;11.10;;;3.57;;
13388;SDS011;6764;53.250;10.410;2023-12-20T06:10:00;11.17;;;3.40;;
13388;SDS011;6764;53.250;10.410;2023-12-20T06:12:26;9.83;;;3.40;;
13388;SDS011;6764;53.250;10.410;2023-12-20T06:14:53;10.83;;;4.33;;
13388;SDS011;6764;53.250;10.410;2023-12-20T06:17:19;12.43;;;3.63;;
13388;SDS011;6764;53.250;10.410;2023-12-20T06:19:45;11.33;;;3.50;;
13388;SDS011;6764;53.250;10.410;2023-12-20T06:22:13;13.43;;;4.53;;
13388;SDS011;6764;53.250;10.410;2023-12-20T06:24:39;7.33;;;3.70;;
13388;SDS011;6764;53.250;10.410;2023-12-20T06:27:04;11.20;;;4.50;;
13388;SDS011;6764;53.250;10.410;2023-12-20T06:29:30;9.77;;;3.97;;
13388;SDS011;6764;53.250;10.410;2023-12-20T06:31:56;13.03;;;4.40;;
13388;SDS011;6764;53.250;10.410;2023-12-20T06:34:21;11.77;;;4.03;;
13388;SDS011;6764;53.250;10.410;2023-12-20T06:36:47;12.93;;;4.67;;
13388;SDS011;6764;53.250;10.410;2023-12-20T06:39:12;13.73;;;4.07;;
13388;SDS011;6764;53.250;10.410;2023-12-20T06:41:39;17.17;;;4.67;;
13388;SDS011;6764;53.250;10.410;2023-12-20T06:44:04;16.00;;;6.40;;
13388;SDS011;6764;53.250;10.410;2023-12-20T06:46:30;12.60;;;4.00;;
13388;SDS011;6764;53.250;10.410;2023-12-20T06:48:56;10.43;;;4.87;;
13388;SDS011;6764;53.250;10.410;2023-12-20T06:51:21;10.80;;;4.53;;
13388;SDS011;6764;53.250;10.410;2023-12-20T06:53:50;12.83;;;4.77;;
13388;SDS011;6764;53.250;10.410;2023-12-20T06:56:16;26.60;;;5.00;;
13388;SDS011;6764;53.250;10.410;2023-12-20T06:58:42;15.90;;;3.97;;
13388;SDS011;6764;53.250;10.410;2023-12-20T07:01:11;12.43;;;4.30;;
13388;SDS011;6764;53.250;10.410;2023-12-20T07:03:37;11.37;;;3.40;;
13388;SDS011;6764;53.250;10.410;2023-12-20T07:06:04;12.97;;;3.80;;
13388;SDS011;6764;53.250;10.410;2023-12-20T07:08:29;12.20;;;3.53;;
13388;SDS011;6764;53.250;10.410;2023-12-20T07:10:55;14.27;;;3.53;;
13388;SDS011;6764;53.250;10.410;2023-12-20T07:13:20;12.50;;;3.70;;
13388;SDS011;6764;53.250;10.410;2023-12-20T07:15:47;11.07;;;3.23;;
13388;SDS011;6764;53.250;10.410;2023-12-20T07:18:13;10.40;;;4.10;;
13388;SDS011;6764;53.250;10.410;2023-12-20T07:20:39;11.00;;;3.93;;
13388;SDS011;6764;53.250;10.410;2023-12-20T07:23:04;9.83;;;3.30;;
13388;SDS011;6764;53.250;10.410;2023-12-20T07:25:30;10.77;;;3.07;;
13388;SDS011;6764;53.250;10.410;2023-12-20T07:27:57;11.40;;;4.13;;
13388;SDS011;6764;53.250;10.410;2023-12-20T07:30:23;10.03;;;3.20;;
13388;SDS011;6764;53.250;10.410;2023-12-20T07:32:49;12.20;;;3.87;;
13388;SDS011;6764;53.250;10.410;2023-12-20T07:35:15;11.57;;;5.77;;
13388;SDS011;6764;53.250;10.410;2023-12-20T07:37:41;11.00;;;3.90;;
13388;SDS011;6764;53.250;10.410;2023-12-20T07:40:07;10.40;;;3.33;;
13388;SDS011;6764;53.250;10.410;2023-12-20T07:42:33;10.17;;;3.60;;
13388;SDS011;6764;53.250;10.410;2023-12-20T07:44:58;9.70;;;3.40;;
13388;SDS011;6764;53.250;10.410;2023-12-20T07:47:24;10.80;;;3.53;;
13388;SDS011;6764;53.250;10.410;2023-12-20T07:49:50;11.60;;;4.00;;
13388;SDS011;6764;53.250;10.410;2023-12-20T07:52:17;9.10;;;3.87;;
13388;SDS011;6764;53.250;10.410;2023-12-20T07:54:43;14.23;;;3.87;;
13388;SDS011;6764;53.250;10.410;2023-12-20T07:57:10;11.67;;;3.50;;
13388;SDS011;6764;53.250;10.410;2023-12-20T07:59:36;14.37;;;3.70;;
13388;SDS011;6764;53.250;10.410;2023-12-20T08:02:01;16.43;;;5.33;;
13388;SDS011;6764;53.250;10.410;2023-12-20T08:04:27;10.20;;;3.10;;
13388;SDS011;6764;53.250;10.410;2023-12-20T08:06:53;13.87;;;3.63;;
13388;SDS011;6764;53.250;10.410;2023-12-20T08:09:18;8.03;;;3.30;;
13388;SDS011;6764;53.250;10.410;2023-12-20T08:11:45;14.93;;;4.10;;
13388;SDS011;6764;53.250;10.410;2023-12-20T08:14:11;16.93;;;5.50;;
13388;SDS011;6764;53.250;10.410;2023-12-20T08:16:37;14.80;;;3.50;;
13388;SDS011;6764;53.250;10.410;2023-12-20T08:19:02;15.83;;;3.97;;
13388;SDS011;6764;53.250;10.410;2023-12-20T08:21:28;9.30;;;3.60;;
13388;SDS011;6764;53.250;10.410;2023-12-20T08:23:53;12.93;;;4.20;;
13388;SDS011;6764;53.250;10.410;2023-12-20T08:26:19;16.07;;;4.07;;
13388;SDS011;6764;53.250;10.410;2023-12-20T08:28:46;16.87;;;5.43;;
13388;SDS011;6764;53.250;10.410;2023-12-20T08:31:15;17.37;;;3.80;;
13388;SDS011;6764;53.250;10.410;2023-12-20T08:33:44;13.33;;;4.70;;
13388;SDS011;6764;53.250;10.410;2023-12-20T08:36:11;12.57;;;4.10;;
13388;SDS011;6764;53.250;10.410;2023-12-20T08:38:37;11.10;;;4.13;;
13388;SDS011;6764;53.250;10.410;2023-12-20T08:41:03;16.67;;;4.00;;
13388;SDS011;6764;53.250;10.410;2023-12-20T08:43:39;19.57;;;4.37;;
13388;SDS011;6764;53.250;10.410;2023-12-20T08:46:08;9.07;;;3.90;;
13388;SDS011;6764;53.250;10.410;2023-12-20T08:48:36;20.77;;;4.90;;
13388;SDS011;6764;53.250;10.410;2023-12-20T08:51:02;17.30;;;4.20;;
13388;SDS011;6764;53.250;10.410;2023-12-20T08:53:29;17.43;;;4.30;;
13388;SDS011;6764;53.250;10.410;2023-12-20T08:55:54;16.33;;;6.20;;
13388;SDS011;6764;53.250;10.410;2023-12-20T08:58:20;9.77;;;3.63;;
13388;SDS011;6764;53.250;10.410;2023-12-20T09:00:46;11.70;;;3.50;;
13388;SDS011;6764;53.250;10.410;2023-12-20T09:03:11;15.00;;;4.30;;
13388;SDS011;6764;53.250;10.410;2023-12-20T09:05:37;8.73;;;3.23;;
13388;SDS011;6764;53.250;10.410;2023-12-20T09:08:02;14.63;;;4.80;;
13388;SDS011;6764;53.250;10.410;2023-12-20T09:10:28;14.27;;;4.03;;
13388;SDS011;6764;53.250;10.410;2023-12-20T09:12:54;12.53;;;3.07;;
13388;SDS011;6764;53.250;10.410;2023-12-20T09:15:23;16.10;;;3.90;;
13388;SDS011;6764;53.250;10.410;2023-12-20T09:17:52;14.40;;;3.90;;
13388;SDS011;6764;53.250;10.410;2023-12-20T09:20:18;13.90;;;3.40;;
13388;SDS011;6764;53.250;10.410;2023-12-20T09:22:44;11.67;;;3.80;;
13388;SDS011;6764;53.250;10.410;2023-12-20T09:25:10;11.30;;;3.40;;
13388;SDS011;6764;53.250;10.410;2023-12-20T09:27:36;11.53;;;3.30;;
13388;SDS011;6764;53.250;10.410;2023-12-20T09:30:02;14.10;;;4.27;;
13388;SDS011;6764;53.250;10.410;2023-12-20T09:32:30;17.20;;;4.43;;
13388;SDS011;6764;53.250;10.410;2023-12-20T09:34:55;12.23;;;4.83;;
13388;SDS011;6764;53.250;10.410;2023-12-20T09:37:21;13.87;;;4.77;;
13388;SDS011;6764;53.250;10.410;2023-12-20T09:39:47;12.23;;;3.43;;
13388;SDS011;6764;53.250;10.410;2023-12-20T09:42:13;11.17;;;4.10;;
13388;SDS011;6764;53.250;10.410;2023-12-20T09:44:46;13.40;;;4.07;;
13388;SDS011;6764;53.250;10.410;2023-12-20T09:47:12;15.30;;;4.37;;
13388;SDS011;6764;53.250;10.410;2023-12-20T09:49:40;19.53;;;4.37;;
13388;SDS011;6764;53.250;10.410;2023-12-20T09:52:08;15.03;;;3.77;;
13388;SDS011;6764;53.250;10.410;2023-12-20T09:54:36;14.53;;;3.67;;
13388;SDS011;6764;53.250;10.410;2023-12-20T09:57:01;14.63;;;3.93;;
13388;SDS011;6764;53.250;10.410;2023-12-20T09:59:27;11.20;;;3.57;;
13388;SDS011;6764;53.250;10.410;2023-12-20T10:01:53;13.23;;;5.00;;
13388;SDS011;6764;53.250;10.410;2023-12-20T10:04:21;13.37;;;4.80;;
13388;SDS011;6764;53.250;10.410;2023-12-20T10:06:47;14.57;;;3.87;;
13388;SDS011;6764;53.250;10.410;2023-12-20T10:09:13;3.63;;;2.20;;
13388;SDS011;6764;53.250;10.410;2023-12-20T10:11:39;6.90;;;2.20;;
13388;SDS011;6764;53.250;10.410;2023-12-20T10:14:05;4.20;;;1.93;;
13388;SDS011;6764;53.250;10.410;2023-12-20T10:16:32;4.83;;;2.20;;
13388;SDS011;6764;53.250;10.410;2023-12-20T10:19:01;6.97;;;4.07;;
13388;SDS011;6764;53.250;10.410;2023-12-20T10:21:27;6.10;;;2.53;;
13388;SDS011;6764;53.250;10.410;2023-12-20T10:23:53;4.43;;;2.33;;
13388;SDS011;6764;53.250;10.410;2023-12-20T10:26:20;3.93;;;2.07;;
13388;SDS011;6764;53.250;10.410;2023-12-20T10:28:53;4.27;;;1.90;;
13388;SDS011;6764;53.250;10.410;2023-12-20T10:31:30;2.20;;;1.73;;
13388;SDS011;6764;53.250;10.410;2023-12-20T10:33:59;2.40;;;1.63;;
13388;SDS011;6764;53.250;10.410;2023-12-20T10:36:26;4.57;;;1.80;;
13388;SDS011;6764;53.250;10.410;2023-12-20T10:38:56;1.93;;;1.50;;
13388;SDS011;6764;53.250;10.410;2023-12-20T10:41:26;3.27;;;1.57;;
13388;SDS011;6764;53.250;10.410;2023-12-20T10:43:54;3.80;;;1.77;;
13388;SDS011;6764;53.250;10.410;2023-12-20T10:46:32;5.13;;;2.60;;
13388;SDS011;6764;53.250;10.410;2023-12-20T10:49:02;4.80;;;2.47;;
13388;SDS011;6764;53.250;10.410;2023-12-20T10:51:28;3.60;;;2.00;;
13388;SDS011;6764;53.250;10.410;2023-12-20T10:53:56;2.60;;;1.53;;
13388;SDS011;6764;53.250;10.410;2023-12-20T10:56:22;4.47;;;2.53;;
13388;SDS011;6764;53.250;10.410;2023-12-20T10:58:49;1.97;;;1.80;;
13388;SDS011;6764;53.250;10.410;2023-12-20T11:01:16;2.73;;;1.67;;
13388;SDS011;6764;53.250;10.410;2023-12-20T11:03:49;2.63;;;1.70;;
13388;SDS011;6764;53.250;10.410;2023-12-20T11:11:35;2.87;;;2.13;;
13388;SDS011;6764;53.250;10.410;2023-12-20T11:14:06;3.07;;;1.50;;
13388;SDS011;6764;53.250;10.410;2023-12-20T11:16:37;2.50;;;1.33;;
13388;SDS011;6764;53.250;10.410;2023-12-20T11:19:06;3.67;;;2.20;;
13388;SDS011;6764;53.250;10.410;2023-12-20T11:21:32;5.13;;;2.03;;
13388;SDS011;6764;53.250;10.410;2023-12-20T11:23:58;4.03;;;2.03;;
13388;SDS011;6764;53.250;10.410;2023-12-20T11:26:28;3.37;;;1.77;;
13388;SDS011;6764;53.250;10.410;2023-12-20T11:29:17;3.87;;;1.83;;
13388;SDS011;6764;53.250;10.410;2023-12-20T11:31:56;3.27;;;1.70;;
13388;SDS011;6764;53.250;10.410;2023-12-20T11:34:21;3.20;;;2.00;;
13388;SDS011;6764;53.250;10.410;2023-12-20T11:36:47;5.93;;;2.00;;
13388;SDS011;6764;53.250;10.410;2023-12-20T11:39:18;5.87;;;2.10;;
13388;SDS011;6764;53.250;10.410;2023-12-20T11:41:46;2.77;;;1.80;;
13388;SDS011;6764;53.250;10.410;2023-12-20T11:44:13;4.40;;;2.53;;
13388;SDS011;6764;53.250;10.410;2023-12-20T11:46:40;8.03;;;2.20;;
13388;SDS011;6764;53.250;10.410;2023-12-20T11:49:05;11.07;;;2.37;;
13388;SDS011;6764;53.250;10.410;2023-12-20T11:51:33;7.90;;;2.37;;
13388;SDS011;6764;53.250;10.410;2023-12-20T11:53:59;8.23;;;2.47;;
13388;SDS011;6764;53.250;10.410;2023-12-20T11:56:24;5.77;;;2.10;;
13388;SDS011;6764;53.250;10.410;2023-12-20T11:58:50;4.03;;;2.37;;
13388;SDS011;6764;53.250;10.410;2023-12-20T12:01:16;5.97;;;2.57;;
13388;SDS011;6764;53.250;10.410;2023-12-20T12:03:41;7.00;;;2.60;;
13388;SDS011;6764;53.250;10.410;2023-12-20T12:06:08;4.43;;;2.90;;
13388;SDS011;6764;53.250;10.410;2023-12-20T12:08:34;7.20;;;2.70;;
13388;SDS011;6764;53.250;10.410;2023-12-20T12:11:00;4.37;;;1.93;;
13388;SDS011;6764;53.250;10.410;2023-12-20T12:13:26;7.73;;;2.33;;
13388;SDS011;6764;53.250;10.410;2023-12-20T12:15:53;6.13;;;2.23;;
13388;SDS011;6764;53.250;10.410;2023-12-20T12:18:18;11.60;;;2.20;;
13388;SDS011;6764;53.250;10.410;2023-12-20T12:20:44;7.30;;;2.47;;
13388;SDS011;6764;53.250;10.410;2023-12-20T12:23:13;9.90;;;6.13;;
13388;SDS011;6764;53.250;10.410;2023-12-20T12:25:41;10.10;;;2.60;;
13388;SDS011;6764;53.250;10.410;2023-12-20T12:28:06;7.23;;;2.43;;
13388;SDS011;6764;53.250;10.410;2023-12-20T12:30:32;7.20;;;2.50;;
13388;SDS011;6764;53.250;10.410;2023-12-20T12:32:57;7.60;;;2.23;;
13388;SDS011;6764;53.250;10.410;2023-12-20T12:35:23;6.17;;;2.87;;
13388;SDS011;6764;53.250;10.410;2023-12-20T12:37:49;9.33;;;2.80;;
13388;SDS011;6764;53.250;10.410;2023-12-20T12:40:16;4.17;;;2.27;;
13388;SDS011;6764;53.250;10.410;2023-12-20T12:42:43;7.03;;;2.80;;
13388;SDS011;6764;53.250;10.410;2023-12-20T12:45:09;6.30;;;2.43;;
13388;SDS011;6764;53.250;10.410;2023-12-20T12:47:38;2.37;;;1.70;;
13388;SDS011;6764;53.250;10.410;2023-12-20T12:50:04;7.77;;;2.50;;
13388;SDS011;6764;53.250;10.410;2023-12-20T12:52:30;8.90;;;2.70;;
13388;SDS011;6764;53.250;10.410;2023-12-20T12:54:56;6.37;;;2.30;;
13388;SDS011;6764;53.250;10.410;2023-12-20T12:57:22;6.93;;;2.20;;
13388;SDS011;6764;53.250;10.410;2023-12-20T12:59:49;8.80;;;2.43;;
13388;SDS011;6764;53.250;10.410;2023-12-20T13:02:15;3.97;;;1.93;;
13388;SDS011;6764;53.250;10.410;2023-12-20T13:04:41;7.73;;;2.50;;
13388;SDS011;6764;53.250;10.410;2023-12-20T13:07:08;7.57;;;2.20;;
13388;SDS011;6764;53.250;10.410;2023-12-20T13:09:37;5.70;;;2.07;;
13388;SDS011;6764;53.250;10.410;2023-12-20T13:12:03;4.33;;;2.40;;
13388;SDS011;6764;53.250;10.410;2023-12-20T13:14:31;3.47;;;1.90;;
13388;SDS011;6764;53.250;10.410;2023-12-20T13:16:58;9.50;;;3.37;;
13388;SDS011;6764;53.250;10.410;2023-12-20T13:19:24;8.47;;;2.60;;
13388;SDS011;6764;53.250;10.410;2023-12-20T13:21:49;3.63;;;2.20;;
13388;SDS011;6764;53.250;10.410;2023-12-20T13:24:15;5.73;;;2.17;;
13388;SDS011;6764;53.250;10.410;2023-12-20T13:26:41;5.57;;;2.37;;
13388;SDS011;6764;53.250;10.410;2023-12-20T13:29:06;6.37;;;2.03;;
13388;SDS011;6764;53.250;10.410;2023-12-20T13:31:32;6.50;;;2.87;;
13388;SDS011;6764;53.250;10.410;2023-12-20T13:33:57;6.30;;;2.27;;
13388;SDS011;6764;53.250;10.410;2023-12-20T13:36:23;8.17;;;2.37;;
13388;SDS011;6764;53.250;10.410;2023-12-20T13:38:49;5.70;;;2.83;;
13388;SDS011;6764;53.250;10.410;2023-12-20T13:41:15;4.67;;;2.00;;
13388;SDS011;6764;53.250;10.410;2023-12-20T13:43:40;6.60;;;2.50;;
13388;SDS011;6764;53.250;10.410;2023-12-20T13:46:06;7.23;;;2.43;;
13388;SDS011;6764;53.250;10.410;2023-12-20T13:48:31;13.97;;;2.83;;
13388;SDS011;6764;53.250;10.410;2023-12-20T13:50:57;10.07;;;2.93;;
13388;SDS011;6764;53.250;10.410;2023-12-20T13:53:23;8.37;;;2.57;;
13388;SDS011;6764;53.250;10.410;2023-12-20T13:55:48;11.03;;;2.73;;
13388;SDS011;6764;53.250;10.410;2023-12-20T13:58:14;7.03;;;2.83;;
13388;SDS011;6764;53.250;10.410;2023-12-20T14:00:40;13.03;;;3.33;;
13388;SDS011;6764;53.250;10.410;2023-12-20T14:03:06;12.57;;;3.00;;
13388;SDS011;6764;53.250;10.410;2023-12-20T14:05:32;9.90;;;3.40;;
13388;SDS011;6764;53.250;10.410;2023-12-20T14:07:58;12.50;;;3.40;;
13388;SDS011;6764;53.250;10.410;2023-12-20T14:10:24;15.67;;;3.90;;
13388;SDS011;6764;53.250;10.410;2023-12-20T14:12:53;14.23;;;3.63;;
13388;SDS011;6764;53.250;10.410;2023-12-20T14:15:19;12.37;;;3.13;;
13388;SDS011;6764;53.250;10.410;2023-12-20T14:17:45;10.90;;;3.23;;
13388;SDS011;6764;53.250;10.410;2023-12-20T14:20:11;14.10;;;4.03;;
13388;SDS011;6764;53.250;10.410;2023-12-20T14:22:40;12.67;;;3.63;;
13388;SDS011;6764;53.250;10.410;2023-12-20T14:25:12;10.07;;;3.40;;
13388;SDS011;6764;53.250;10.410;2023-12-20T14:27:39;11.67;;;3.70;;
13388;SDS011;6764;53.250;10.410;2023-12-20T14:30:05;12.10;;;3.93;;
13388;SDS011;6764;53.250;10.410;2023-12-20T14:32:31;12.90;;;3.67;;
13388;SDS011;6764;53.250;10.410;2023-12-20T14:34:59;14.80;;;7.57;;
13388;SDS011;6764;53.250;10.410;2023-12-20T14:37:25;16.93;;;3.50;;
13388;SDS011;6764;53.250;10.410;2023-12-20T14:39:50;12.73;;;3.50;;